SPCL

Details ICAO SPCL (PCL)
Name CAP FAP DAVID ABENZUR RENGIFO INTL
Region Peru
Timezone America/Lima (UTC-5.0)
Plans Departing 14
Arriving 17
Stats Elevation 513 ft / 156 m (AMSL)
Location -8.377940° -74.574298°
Runways 1
Magnetic Variation 4.770° W
Sunrise 2018-05-21 11:05:10 UTC / 2018-05-21 06:05:10 Local
Sunset 2018-05-21 22:47:29 UTC / 2018-05-21 17:47:29 Local
Advertisement - Login to hide

Runways

ID Width Length Bearing (true) Bearing (mag) Surface Threshold Offset Overrun Length
02 148 ft / 45 m 9,234 ft / 2,814 m 19.91° 24.68° Asphalt 0 ft / 0 m 0 ft / 0 m
20 148 ft / 45 m 9,234 ft / 2,814 m 199.91° 204.68° Asphalt 0 ft / 0 m 0 ft / 0 m

Map

Weather


0- 5 10 15 20 25 30 35+ Temperature / ° C

Clouds and Precipitation
Forecast for 2018-05-21 18:00 UTC. Updated 2 hours ago

Ground ~20,000 ft ~40,000 ft Winds

METAR

SPCL 211900Z 36005KT 9999 SCT020 28/19 Q1013 RMK PP000

TAF

TAF SPCL 211700Z 2118/2218 33003KT 9999 SCT015 SCT080 TX31/2120Z TN20/2211Z BECMG 2122/2200 VRB02KT SCT015 BKN100 TEMPO 2209/2212 8000 BKN012 BKN080 BECMG 2213/2216 35005KT BKN015 SCT080

Frequencies

Tower 126.90 MHz PUCALLPA TWR
Approach 118.10 MHz PUCALLPA APP
Warning: Do not use this data for real-world aviation or navigation. No guarantee of current accuracy is given.